sensor_id;sensor_type;location;lat;lon;timestamp;pressure;altitude;pressure_sealevel;temperature;humidity
62849;BME280;48941;49.516;8.286;2022-07-01T00:01:03;100474.00;;;18.03;73.95
62849;BME280;48941;49.516;8.286;2022-07-01T00:03:31;100483.75;;;18.04;75.31
62849;BME280;48941;49.516;8.286;2022-07-01T00:06:01;100479.41;;;18.03;74.47
62849;BME280;48941;49.516;8.286;2022-07-01T00:08:29;100471.31;;;18.03;73.69
62849;BME280;48941;49.516;8.286;2022-07-01T00:10:57;100471.31;;;18.03;74.00
62849;BME280;48941;49.516;8.286;2022-07-01T00:13:25;100471.78;;;17.99;75.32
62849;BME280;48941;49.516;8.286;2022-07-01T00:15:55;100459.50;;;17.96;74.47
62849;BME280;48941;49.516;8.286;2022-07-01T00:18:23;100449.94;;;17.94;74.52
62849;BME280;48941;49.516;8.286;2022-07-01T00:20:51;100450.53;;;17.79;75.66
62849;BME280;48941;49.516;8.286;2022-07-01T00:23:19;100463.69;;;17.82;74.61
62849;BME280;48941;49.516;8.286;2022-07-01T00:25:47;100467.59;;;17.88;75.61
62849;BME280;48941;49.516;8.286;2022-07-01T00:28:16;100467.44;;;17.89;75.72
62849;BME280;48941;49.516;8.286;2022-07-01T00:30:44;100464.06;;;17.87;75.70
62849;BME280;48941;49.516;8.286;2022-07-01T00:33:13;100466.94;;;17.86;77.54
62849;BME280;48941;49.516;8.286;2022-07-01T00:35:41;100475.66;;;17.80;77.89
62849;BME280;48941;49.516;8.286;2022-07-01T00:38:09;100475.16;;;17.84;76.49
62849;BME280;48941;49.516;8.286;2022-07-01T00:40:38;100478.03;;;17.91;76.60
62849;BME280;48941;49.516;8.286;2022-07-01T00:43:06;100488.09;;;17.81;78.25
62849;BME280;48941;49.516;8.286;2022-07-01T00:45:34;100481.19;;;17.78;77.46
62849;BME280;48941;49.516;8.286;2022-07-01T00:48:02;100482.72;;;17.72;78.42
62849;BME280;48941;49.516;8.286;2022-07-01T00:50:32;100476.81;;;17.61;78.22
62849;BME280;48941;49.516;8.286;2022-07-01T00:53:00;100497.66;;;17.59;77.89
62849;BME280;48941;49.516;8.286;2022-07-01T00:55:28;100500.22;;;17.60;77.33
62849;BME280;48941;49.516;8.286;2022-07-01T00:57:56;100510.66;;;17.63;77.32
62849;BME280;48941;49.516;8.286;2022-07-01T01:00:24;100512.50;;;17.63;77.20
62849;BME280;48941;49.516;8.286;2022-07-01T01:02:53;100506.28;;;17.70;75.90
62849;BME280;48941;49.516;8.286;2022-07-01T01:05:21;100527.31;;;17.75;75.96
62849;BME280;48941;49.516;8.286;2022-07-01T01:07:51;100535.91;;;17.79;76.65
62849;BME280;48941;49.516;8.286;2022-07-01T01:10:19;100532.22;;;17.71;75.76
62849;BME280;48941;49.516;8.286;2022-07-01T01:12:50;100516.72;;;17.65;76.07
62849;BME280;48941;49.516;8.286;2022-07-01T01:15:19;100500.03;;;17.54;76.01
62849;BME280;48941;49.516;8.286;2022-07-01T01:17:47;100502.53;;;17.47;75.55
62849;BME280;48941;49.516;8.286;2022-07-01T01:20:17;100500.03;;;17.45;76.78
62849;BME280;48941;49.516;8.286;2022-07-01T01:22:47;100501.69;;;17.46;76.59
62849;BME280;48941;49.516;8.286;2022-07-01T01:25:16;100509.41;;;17.41;76.48
62849;BME280;48941;49.516;8.286;2022-07-01T01:27:44;100507.91;;;17.47;76.09
62849;BME280;48941;49.516;8.286;2022-07-01T01:30:12;100502.22;;;17.50;75.40
62849;BME280;48941;49.516;8.286;2022-07-01T01:32:41;100510.09;;;17.43;74.89
62849;BME280;48941;49.516;8.286;2022-07-01T01:35:10;100497.97;;;17.39;75.46
62849;BME280;48941;49.516;8.286;2022-07-01T01:37:40;100506.56;;;17.43;74.66
62849;BME280;48941;49.516;8.286;2022-07-01T01:40:10;100508.56;;;17.41;75.21
62849;BME280;48941;49.516;8.286;2022-07-01T01:42:40;100502.50;;;17.39;75.10
62849;BME280;48941;49.516;8.286;2022-07-01T01:45:09;100503.03;;;17.34;75.39
62849;BME280;48941;49.516;8.286;2022-07-01T01:47:37;100496.13;;;17.40;75.22
62849;BME280;48941;49.516;8.286;2022-07-01T01:50:07;100490.41;;;17.35;74.74
62849;BME280;48941;49.516;8.286;2022-07-01T01:52:36;100493.91;;;17.35;74.76
62849;BME280;48941;49.516;8.286;2022-07-01T01:55:05;100496.44;;;17.37;74.56
62849;BME280;48941;49.516;8.286;2022-07-01T01:57:35;100505.38;;;17.37;74.53
62849;BME280;48941;49.516;8.286;2022-07-01T02:00:04;100506.69;;;17.33;75.15
62849;BME280;48941;49.516;8.286;2022-07-01T02:02:35;100505.19;;;17.30;75.82
62849;BME280;48941;49.516;8.286;2022-07-01T02:05:09;100497.94;;;17.31;75.40
62849;BME280;48941;49.516;8.286;2022-07-01T02:07:38;100509.22;;;17.26;75.46
62849;BME280;48941;49.516;8.286;2022-07-01T02:10:07;100504.81;;;17.25;75.64
62849;BME280;48941;49.516;8.286;2022-07-01T02:12:37;100503.47;;;17.21;75.82
62849;BME280;48941;49.516;8.286;2022-07-01T02:15:06;100506.00;;;17.23;75.61
62849;BME280;48941;49.516;8.286;2022-07-01T02:17:34;100494.03;;;17.17;76.36
62849;BME280;48941;49.516;8.286;2022-07-01T02:20:03;100491.84;;;17.12;75.66
62849;BME280;48941;49.516;8.286;2022-07-01T02:22:31;100487.94;;;17.07;75.04
62849;BME280;48941;49.516;8.286;2022-07-01T02:24:59;100501.25;;;17.08;74.86
62849;BME280;48941;49.516;8.286;2022-07-01T02:27:28;100498.56;;;17.08;74.88
62849;BME280;48941;49.516;8.286;2022-07-01T02:29:59;100503.63;;;17.11;74.65
62849;BME280;48941;49.516;8.286;2022-07-01T02:32:27;100499.75;;;17.14;75.33
62849;BME280;48941;49.516;8.286;2022-07-01T02:34:55;100488.31;;;17.12;75.78
62849;BME280;48941;49.516;8.286;2022-07-01T02:37:23;100476.03;;;17.09;75.84
62849;BME280;48941;49.516;8.286;2022-07-01T02:39:51;100480.91;;;17.06;75.04
62849;BME280;48941;49.516;8.286;2022-07-01T02:42:19;100487.94;;;16.99;75.14
62849;BME280;48941;49.516;8.286;2022-07-01T02:45:03;100474.63;;;16.97;75.22
62849;BME280;48941;49.516;8.286;2022-07-01T02:47:33;100473.63;;;16.98;74.97
62849;BME280;48941;49.516;8.286;2022-07-01T02:50:01;100467.41;;;16.89;75.59
62849;BME280;48941;49.516;8.286;2022-07-01T02:52:29;100468.88;;;16.84;74.77
62849;BME280;48941;49.516;8.286;2022-07-01T02:54:57;100462.94;;;16.80;74.93
62849;BME280;48941;49.516;8.286;2022-07-01T02:57:25;100469.03;;;16.82;75.44
62849;BME280;48941;49.516;8.286;2022-07-01T02:59:53;100475.63;;;16.88;75.24
62849;BME280;48941;49.516;8.286;2022-07-01T03:02:23;100471.72;;;16.82;75.16
62849;BME280;48941;49.516;8.286;2022-07-01T03:04:52;100469.03;;;16.82;74.66
62849;BME280;48941;49.516;8.286;2022-07-01T03:07:21;100482.94;;;16.78;74.82
62849;BME280;48941;49.516;8.286;2022-07-01T03:09:49;100485.09;;;16.74;74.95
62849;BME280;48941;49.516;8.286;2022-07-01T03:12:18;100486.59;;;16.68;75.16
62849;BME280;48941;49.516;8.286;2022-07-01T03:15:03;100474.63;;;16.63;74.69
62849;BME280;48941;49.516;8.286;2022-07-01T03:17:34;100476.78;;;16.59;75.03
62849;BME280;48941;49.516;8.286;2022-07-01T03:20:05;100473.41;;;16.57;75.02
62849;BME280;48941;49.516;8.286;2022-07-01T03:22:33;100476.63;;;16.61;74.94
62849;BME280;48941;49.516;8.286;2022-07-01T03:25:02;100478.16;;;16.63;74.96
62849;BME280;48941;49.516;8.286;2022-07-01T03:27:31;100472.31;;;16.68;74.81
62849;BME280;48941;49.516;8.286;2022-07-01T03:29:59;100485.75;;;16.68;75.01
62849;BME280;48941;49.516;8.286;2022-07-01T03:32:28;100494.97;;;16.65;74.79
62849;BME280;48941;49.516;8.286;2022-07-01T03:34:57;100488.44;;;16.68;74.39
62849;BME280;48941;49.516;8.286;2022-07-01T03:37:25;100491.13;;;16.68;74.69
62849;BME280;48941;49.516;8.286;2022-07-01T03:39:53;100489.78;;;16.64;74.36
62849;BME280;48941;49.516;8.286;2022-07-01T03:42:21;100495.31;;;16.62;74.29
62849;BME280;48941;49.516;8.286;2022-07-01T03:44:49;100476.78;;;16.59;74.63
62849;BME280;48941;49.516;8.286;2022-07-01T03:47:17;100465.97;;;16.51;74.43
62849;BME280;48941;49.516;8.286;2022-07-01T03:49:45;100478.09;;;16.55;74.53
62849;BME280;48941;49.516;8.286;2022-07-01T03:52:15;100484.34;;;16.56;74.09
62849;BME280;48941;49.516;8.286;2022-07-01T03:54:43;100475.25;;;16.57;74.45
62849;BME280;48941;49.516;8.286;2022-07-01T03:57:10;100480.28;;;16.51;74.30
62849;BME280;48941;49.516;8.286;2022-07-01T03:59:39;100494.72;;;16.50;74.12
62849;BME280;48941;49.516;8.286;2022-07-01T04:02:07;100493.88;;;16.50;74.41
62849;BME280;48941;49.516;8.286;2022-07-01T04:04:35;100517.06;;;16.51;74.43
62849;BME280;48941;49.516;8.286;2022-07-01T04:07:05;100524.97;;;16.52;74.57
62849;BME280;48941;49.516;8.286;2022-07-01T04:09:35;100524.69;;;16.56;74.76
62849;BME280;48941;49.516;8.286;2022-07-01T04:12:04;100528.88;;;16.58;74.02
62849;BME280;48941;49.516;8.286;2022-07-01T04:14:34;100530.25;;;16.62;74.04
62849;BME280;48941;49.516;8.286;2022-07-01T04:17:03;100523.16;;;16.61;73.31
62849;BME280;48941;49.516;8.286;2022-07-01T04:19:31;100527.38;;;16.56;74.04
62849;BME280;48941;49.516;8.286;2022-07-01T04:22:00;100523.81;;;16.55;74.19
62849;BME280;48941;49.516;8.286;2022-07-01T04:24:46;100528.41;;;16.63;74.65
62849;BME280;48941;49.516;8.286;2022-07-01T04:27:14;100524.03;;;16.62;74.34
62849;BME280;48941;49.516;8.286;2022-07-01T04:29:42;100530.25;;;16.62;73.69
62849;BME280;48941;49.516;8.286;2022-07-01T04:32:11;100550.94;;;16.62;73.48
62849;BME280;48941;49.516;8.286;2022-07-01T04:34:39;100550.06;;;16.61;73.58
62849;BME280;48941;49.516;8.286;2022-07-01T04:37:08;100558.63;;;16.57;73.56
62849;BME280;48941;49.516;8.286;2022-07-01T04:39:36;100566.88;;;16.63;73.22
62849;BME280;48941;49.516;8.286;2022-07-01T04:42:05;100562.03;;;16.67;72.84
62849;BME280;48941;49.516;8.286;2022-07-01T04:44:34;100560.94;;;16.78;72.37
62849;BME280;48941;49.516;8.286;2022-07-01T04:47:09;100557.91;;;16.81;72.08
62849;BME280;48941;49.516;8.286;2022-07-01T04:49:37;100563.53;;;16.87;72.25
62849;BME280;48941;49.516;8.286;2022-07-01T04:52:06;100568.44;;;16.92;72.85
62849;BME280;48941;49.516;8.286;2022-07-01T04:54:34;100579.41;;;16.99;71.52
62849;BME280;48941;49.516;8.286;2022-07-01T04:57:05;100581.97;;;17.08;71.07
62849;BME280;48941;49.516;8.286;2022-07-01T04:59:33;100566.03;;;17.15;71.35
62849;BME280;48941;49.516;8.286;2022-07-01T05:02:01;100573.78;;;17.18;71.59
62849;BME280;48941;49.516;8.286;2022-07-01T05:04:33;100562.66;;;17.13;71.83
62849;BME280;48941;49.516;8.286;2022-07-01T05:07:02;100568.69;;;17.07;72.39
62849;BME280;48941;49.516;8.286;2022-07-01T05:09:31;100555.75;;;17.10;73.13
62849;BME280;48941;49.516;8.286;2022-07-01T05:11:59;100556.28;;;17.14;72.96
62849;BME280;48941;49.516;8.286;2022-07-01T05:14:28;100571.25;;;17.17;73.18
62849;BME280;48941;49.516;8.286;2022-07-01T05:16:56;100574.47;;;17.20;73.74
62849;BME280;48941;49.516;8.286;2022-07-01T05:19:24;100582.88;;;17.25;75.10
62849;BME280;48941;49.516;8.286;2022-07-01T05:22:10;100576.53;;;17.35;73.49
62849;BME280;48941;49.516;8.286;2022-07-01T05:24:38;100571.16;;;17.35;73.23
62849;BME280;48941;49.516;8.286;2022-07-01T05:27:07;100578.56;;;17.32;72.47
62849;BME280;48941;49.516;8.286;2022-07-01T05:29:37;100570.31;;;17.34;72.41
62849;BME280;48941;49.516;8.286;2022-07-01T05:32:05;100576.91;;;17.40;72.18
62849;BME280;48941;49.516;8.286;2022-07-01T05:34:34;100579.94;;;17.45;70.51
62849;BME280;48941;49.516;8.286;2022-07-01T05:37:05;100575.56;;;17.44;70.65
62849;BME280;48941;49.516;8.286;2022-07-01T05:39:33;100589.38;;;17.49;71.02
62849;BME280;48941;49.516;8.286;2022-07-01T05:42:09;100583.81;;;17.42;70.66
62849;BME280;48941;49.516;8.286;2022-07-01T05:44:38;100598.13;;;17.51;71.30
62849;BME280;48941;49.516;8.286;2022-07-01T05:47:07;100594.44;;;17.52;70.26
62849;BME280;48941;49.516;8.286;2022-07-01T05:49:36;100606.56;;;17.56;69.79
62849;BME280;48941;49.516;8.286;2022-07-01T05:52:05;100611.31;;;17.62;69.54
62849;BME280;48941;49.516;8.286;2022-07-01T05:54:33;100604.44;;;17.68;70.14
62849;BME280;48941;49.516;8.286;2022-07-01T05:57:01;100605.94;;;17.70;69.79
62849;BME280;48941;49.516;8.286;2022-07-01T05:59:35;100598.69;;;17.71;68.19
62849;BME280;48941;49.516;8.286;2022-07-01T06:02:05;100617.06;;;17.67;68.17
62849;BME280;48941;49.516;8.286;2022-07-01T06:04:34;100625.47;;;17.72;68.88
62849;BME280;48941;49.516;8.286;2022-07-01T06:07:03;100611.00;;;17.74;69.63
62849;BME280;48941;49.516;8.286;2022-07-01T06:09:31;100616.88;;;17.77;69.14
62849;BME280;48941;49.516;8.286;2022-07-01T06:11:59;100622.97;;;17.79;69.73
62849;BME280;48941;49.516;8.286;2022-07-01T06:14:27;100629.03;;;17.81;68.81
62849;BME280;48941;49.516;8.286;2022-07-01T06:16:55;100614.75;;;17.89;67.94
62849;BME280;48941;49.516;8.286;2022-07-01T06:19:25;100625.56;;;17.97;67.40
62849;BME280;48941;49.516;8.286;2022-07-01T06:21:53;100628.44;;;17.96;67.60
62849;BME280;48941;49.516;8.286;2022-07-01T06:24:21;100628.25;;;17.97;67.86
62849;BME280;48941;49.516;8.286;2022-07-01T06:26:50;100639.66;;;17.83;68.97
62849;BME280;48941;49.516;8.286;2022-07-01T06:29:18;100640.66;;;17.82;67.77
62849;BME280;48941;49.516;8.286;2022-07-01T06:31:47;100640.38;;;17.93;67.26
62849;BME280;48941;49.516;8.286;2022-07-01T06:34:15;100633.31;;;17.92;68.45
62849;BME280;48941;49.516;8.286;2022-07-01T06:36:44;100646.13;;;17.98;67.62
62849;BME280;48941;49.516;8.286;2022-07-01T06:39:13;100634.81;;;17.95;67.42
62849;BME280;48941;49.516;8.286;2022-07-01T06:41:41;100637.38;;;17.96;68.10
62849;BME280;48941;49.516;8.286;2022-07-01T06:44:09;100631.97;;;17.96;67.48
62849;BME280;48941;49.516;8.286;2022-07-01T06:46:37;100641.41;;;18.00;68.06
62849;BME280;48941;49.516;8.286;2022-07-01T06:49:05;100642.25;;;18.01;68.49
62849;BME280;48941;49.516;8.286;2022-07-01T06:51:33;100641.78;;;18.05;67.98
62849;BME280;48941;49.516;8.286;2022-07-01T06:54:03;100643.59;;;18.13;67.28
62849;BME280;48941;49.516;8.286;2022-07-01T06:56:32;100644.13;;;18.17;66.58
62849;BME280;48941;49.516;8.286;2022-07-01T06:59:00;100642.09;;;18.19;67.70
62849;BME280;48941;49.516;8.286;2022-07-01T07:01:29;100647.16;;;18.14;66.16
62849;BME280;48941;49.516;8.286;2022-07-01T07:03:57;100662.47;;;18.13;66.36
62849;BME280;48941;49.516;8.286;2022-07-01T07:06:26;100673.75;;;18.08;67.17
62849;BME280;48941;49.516;8.286;2022-07-01T07:08:55;100682.00;;;18.07;67.98
62849;BME280;48941;49.516;8.286;2022-07-01T07:11:25;100683.19;;;18.04;67.28
62849;BME280;48941;49.516;8.286;2022-07-01T07:13:53;100693.81;;;18.06;67.68
62849;BME280;48941;49.516;8.286;2022-07-01T07:16:22;100701.56;;;18.09;67.01
62849;BME280;48941;49.516;8.286;2022-07-01T07:18:50;100706.63;;;18.04;67.43
62849;BME280;48941;49.516;8.286;2022-07-01T07:21:18;100687.91;;;18.02;66.92
62849;BME280;48941;49.516;8.286;2022-07-01T07:23:47;100690.41;;;17.96;67.32
62849;BME280;48941;49.516;8.286;2022-07-01T07:26:15;100694.94;;;17.95;67.60
62849;BME280;48941;49.516;8.286;2022-07-01T07:28:45;100696.31;;;17.99;67.87
62849;BME280;48941;49.516;8.286;2022-07-01T07:31:13;100684.00;;;17.97;68.14
62849;BME280;48941;49.516;8.286;2022-07-01T07:33:41;100682.16;;;17.97;68.26
62849;BME280;48941;49.516;8.286;2022-07-01T07:36:09;100674.06;;;17.97;68.34
62849;BME280;48941;49.516;8.286;2022-07-01T07:38:38;100665.34;;;18.03;68.01
62849;BME280;48941;49.516;8.286;2022-07-01T07:41:06;100670.91;;;18.10;66.83
62849;BME280;48941;49.516;8.286;2022-07-01T07:43:34;100675.78;;;18.15;67.98
62849;BME280;48941;49.516;8.286;2022-07-01T07:46:04;100665.16;;;18.13;67.65
62849;BME280;48941;49.516;8.286;2022-07-01T07:48:32;100659.78;;;18.13;68.18
62849;BME280;48941;49.516;8.286;2022-07-01T07:51:01;100671.59;;;18.12;68.65
62849;BME280;48941;49.516;8.286;2022-07-01T07:53:29;100675.13;;;18.21;69.55
62849;BME280;48941;49.516;8.286;2022-07-01T07:55:57;100688.09;;;18.17;70.08
62849;BME280;48941;49.516;8.286;2022-07-01T07:58:25;100686.25;;;18.18;69.79
62849;BME280;48941;49.516;8.286;2022-07-01T08:00:53;100676.81;;;18.14;71.55
62849;BME280;48941;49.516;8.286;2022-07-01T08:03:23;100654.06;;;18.08;69.64
62849;BME280;48941;49.516;8.286;2022-07-01T08:05:51;100643.28;;;18.08;70.42
62849;BME280;48941;49.516;8.286;2022-07-01T08:08:19;100637.72;;;18.01;71.38
62849;BME280;48941;49.516;8.286;2022-07-01T08:10:49;100638.19;;;17.97;69.76
62849;BME280;48941;49.516;8.286;2022-07-01T08:13:17;100648.28;;;17.95;69.41
62849;BME280;48941;49.516;8.286;2022-07-01T08:15:45;100650.97;;;17.86;69.93
62849;BME280;48941;49.516;8.286;2022-07-01T08:18:14;100656.84;;;17.82;70.58
62849;BME280;48941;49.516;8.286;2022-07-01T08:20:43;100663.22;;;17.81;70.64
62849;BME280;48941;49.516;8.286;2022-07-01T08:23:11;100688.13;;;17.83;70.22
62849;BME280;48941;49.516;8.286;2022-07-01T08:25:40;100701.59;;;17.83;69.96
62849;BME280;48941;49.516;8.286;2022-07-01T08:28:08;100713.19;;;17.75;68.90
62849;BME280;48941;49.516;8.286;2022-07-01T08:30:36;100718.78;;;17.82;69.30
62849;BME280;48941;49.516;8.286;2022-07-01T08:33:05;100713.19;;;17.75;69.09
62849;BME280;48941;49.516;8.286;2022-07-01T08:35:33;100708.31;;;17.79;69.94
62849;BME280;48941;49.516;8.286;2022-07-01T08:38:04;100703.97;;;17.78;68.89
62849;BME280;48941;49.516;8.286;2022-07-01T08:40:32;100721.13;;;17.77;69.52
62849;BME280;48941;49.516;8.286;2022-07-01T08:43:03;100720.97;;;17.78;70.13
62849;BME280;48941;49.516;8.286;2022-07-01T08:45:33;100721.81;;;17.79;69.42
62849;BME280;48941;49.516;8.286;2022-07-01T08:48:04;100736.34;;;17.86;69.09
62849;BME280;48941;49.516;8.286;2022-07-01T08:50:34;100733.66;;;17.86;69.16
62849;BME280;48941;49.516;8.286;2022-07-01T08:53:05;100735.13;;;17.80;69.39
62849;BME280;48941;49.516;8.286;2022-07-01T08:55:33;100745.97;;;17.88;68.48
62849;BME280;48941;49.516;8.286;2022-07-01T08:58:24;100738.06;;;17.95;68.81
62849;BME280;48941;49.516;8.286;2022-07-01T09:00:53;100728.84;;;18.06;67.94
62849;BME280;48941;49.516;8.286;2022-07-01T09:03:26;100730.72;;;18.14;67.74
62849;BME280;48941;49.516;8.286;2022-07-01T09:05:56;100734.09;;;18.16;66.54
62849;BME280;48941;49.516;8.286;2022-07-01T09:08:26;100731.28;;;18.25;66.51
62849;BME280;48941;49.516;8.286;2022-07-01T09:10:55;100736.31;;;18.28;66.25
62849;BME280;48941;49.516;8.286;2022-07-01T09:13:23;100747.97;;;18.37;66.66
62849;BME280;48941;49.516;8.286;2022-07-01T09:15:55;100743.97;;;18.74;66.42
62849;BME280;48941;49.516;8.286;2022-07-01T09:18:24;100746.53;;;19.08;66.12
62849;BME280;48941;49.516;8.286;2022-07-01T09:20:52;100746.16;;;19.36;63.82
62849;BME280;48941;49.516;8.286;2022-07-01T09:23:20;100732.47;;;19.46;62.64
62849;BME280;48941;49.516;8.286;2022-07-01T09:25:50;100738.50;;;19.73;62.52
62849;BME280;48941;49.516;8.286;2022-07-01T09:28:23;100742.03;;;19.81;61.26
62849;BME280;48941;49.516;8.286;2022-07-01T09:30:54;100726.69;;;20.05;59.98
62849;BME280;48941;49.516;8.286;2022-07-01T09:33:25;100727.41;;;20.30;59.30
62849;BME280;48941;49.516;8.286;2022-07-01T09:35:54;100738.22;;;20.30;59.44
62849;BME280;48941;49.516;8.286;2022-07-01T09:38:24;100735.91;;;20.19;58.51
62849;BME280;48941;49.516;8.286;2022-07-01T09:41:00;100727.78;;;20.19;60.93
62849;BME280;48941;49.516;8.286;2022-07-01T09:43:29;100738.16;;;20.15;59.65
62849;BME280;48941;49.516;8.286;2022-07-01T09:45:59;100726.03;;;20.03;59.93
62849;BME280;48941;49.516;8.286;2022-07-01T09:48:43;100725.06;;;19.96;58.18
62849;BME280;48941;49.516;8.286;2022-07-01T09:51:12;100736.41;;;19.91;59.15
62849;BME280;48941;49.516;8.286;2022-07-01T09:53:42;100738.88;;;20.01;58.27
62849;BME280;48941;49.516;8.286;2022-07-01T09:56:12;100743.50;;;20.23;58.51
62849;BME280;48941;49.516;8.286;2022-07-01T09:58:40;100746.94;;;20.40;57.86
62849;BME280;48941;49.516;8.286;2022-07-01T10:01:11;100748.59;;;20.49;57.28
62849;BME280;48941;49.516;8.286;2022-07-01T10:03:41;100749.09;;;20.53;57.06
62849;BME280;48941;49.516;8.286;2022-07-01T10:06:37;100753.56;;;20.69;56.35
62849;BME280;48941;49.516;8.286;2022-07-01T10:09:21;100754.22;;;20.71;56.43
62849;BME280;48941;49.516;8.286;2022-07-01T10:12:22;100753.38;;;20.71;55.88
62849;BME280;48941;49.516;8.286;2022-07-01T10:14:54;100749.91;;;20.85;55.00
62849;BME280;48941;49.516;8.286;2022-07-01T10:17:27;100749.53;;;20.88;55.11
62849;BME280;48941;49.516;8.286;2022-07-01T10:19:56;100748.91;;;21.01;54.83
62849;BME280;48941;49.516;8.286;2022-07-01T10:22:26;100753.94;;;21.04;53.71
62849;BME280;48941;49.516;8.286;2022-07-01T10:24:54;100756.75;;;21.11;54.35
62849;BME280;48941;49.516;8.286;2022-07-01T10:27:25;100760.91;;;21.21;55.27
62849;BME280;48941;49.516;8.286;2022-07-01T10:30:14;100754.38;;;21.31;53.86
62849;BME280;48941;49.516;8.286;2022-07-01T10:32:46;100756.59;;;21.12;53.28
62849;BME280;48941;49.516;8.286;2022-07-01T10:35:35;100761.16;;;21.12;53.66
62849;BME280;48941;49.516;8.286;2022-07-01T10:38:11;100758.34;;;21.05;53.56
62849;BME280;48941;49.516;8.286;2022-07-01T10:40:43;100767.09;;;20.92;53.27
62849;BME280;48941;49.516;8.286;2022-07-01T10:43:17;100759.69;;;20.86;54.42
62849;BME280;48941;49.516;8.286;2022-07-01T10:45:59;100756.81;;;20.87;53.86
62849;BME280;48941;49.516;8.286;2022-07-01T10:48:31;100756.44;;;20.91;53.63
62849;BME280;48941;49.516;8.286;2022-07-01T10:51:00;100760.34;;;20.88;54.33
62849;BME280;48941;49.516;8.286;2022-07-01T10:53:45;100761.00;;;20.90;54.33
62849;BME280;48941;49.516;8.286;2022-07-01T10:56:38;100762.47;;;21.01;53.72
62849;BME280;48941;49.516;8.286;2022-07-01T10:59:17;100757.66;;;21.26;54.09
62849;BME280;48941;49.516;8.286;2022-07-01T11:01:46;100752.19;;;21.64;52.59
62849;BME280;48941;49.516;8.286;2022-07-01T11:04:14;100745.56;;;21.66;52.09
62849;BME280;48941;49.516;8.286;2022-07-01T11:06:42;100743.03;;;21.80;53.24
62849;BME280;48941;49.516;8.286;2022-07-01T11:09:12;100745.72;;;22.10;50.20
62849;BME280;48941;49.516;8.286;2022-07-01T11:11:41;100734.53;;;22.34;50.06
62849;BME280;48941;49.516;8.286;2022-07-01T11:14:10;100735.63;;;22.55;50.07
62849;BME280;48941;49.516;8.286;2022-07-01T11:16:39;100740.84;;;22.78;47.35
62849;BME280;48941;49.516;8.286;2022-07-01T11:19:07;100732.97;;;22.83;48.74
62849;BME280;48941;49.516;8.286;2022-07-01T11:21:36;100733.34;;;22.80;47.99
62849;BME280;48941;49.516;8.286;2022-07-01T11:24:08;100737.03;;;22.72;47.27
62849;BME280;48941;49.516;8.286;2022-07-01T11:26:36;100736.56;;;22.68;46.79
62849;BME280;48941;49.516;8.286;2022-07-01T11:29:04;100742.00;;;22.47;46.50
62849;BME280;48941;49.516;8.286;2022-07-01T11:31:34;100733.91;;;22.32;47.40
62849;BME280;48941;49.516;8.286;2022-07-01T11:34:03;100728.66;;;22.16;47.72
62849;BME280;48941;49.516;8.286;2022-07-01T11:36:31;100730.81;;;22.20;48.07
62849;BME280;48941;49.516;8.286;2022-07-01T11:39:17;100736.81;;;22.16;49.04
62849;BME280;48941;49.516;8.286;2022-07-01T11:41:52;100729.66;;;21.93;49.88
62849;BME280;48941;49.516;8.286;2022-07-01T11:44:28;100729.47;;;21.95;49.08
62849;BME280;48941;49.516;8.286;2022-07-01T11:46:58;100728.41;;;22.25;48.92
62849;BME280;48941;49.516;8.286;2022-07-01T11:49:27;100728.03;;;22.50;48.50
62849;BME280;48941;49.516;8.286;2022-07-01T11:51:56;100728.31;;;22.55;49.08
62849;BME280;48941;49.516;8.286;2022-07-01T11:54:25;100717.63;;;22.32;50.75
62849;BME280;48941;49.516;8.286;2022-07-01T11:56:53;100722.38;;;22.30;49.80
62849;BME280;48941;49.516;8.286;2022-07-01T11:59:21;100724.72;;;22.18;51.07
62849;BME280;48941;49.516;8.286;2022-07-01T12:01:54;100713.03;;;22.18;50.60
62849;BME280;48941;49.516;8.286;2022-07-01T12:04:24;100717.47;;;22.19;50.48
62849;BME280;48941;49.516;8.286;2022-07-01T12:06:52;100722.13;;;22.10;50.13
62849;BME280;48941;49.516;8.286;2022-07-01T12:09:20;100720.53;;;22.16;50.77
62849;BME280;48941;49.516;8.286;2022-07-01T12:11:50;100712.78;;;22.27;50.32
62849;BME280;48941;49.516;8.286;2022-07-01T12:14:20;100713.31;;;22.59;49.18
62849;BME280;48941;49.516;8.286;2022-07-01T12:16:51;100716.56;;;22.98;50.17
62849;BME280;48941;49.516;8.286;2022-07-01T12:19:20;100718.28;;;23.27;48.76
62849;BME280;48941;49.516;8.286;2022-07-01T12:21:57;100718.22;;;23.49;48.09
62849;BME280;48941;49.516;8.286;2022-07-01T12:24:26;100714.47;;;23.84;46.26
62849;BME280;48941;49.516;8.286;2022-07-01T12:27:02;100698.22;;;24.04;44.92
62849;BME280;48941;49.516;8.286;2022-07-01T12:29:50;100701.53;;;24.00;45.29
62849;BME280;48941;49.516;8.286;2022-07-01T12:32:20;100705.25;;;23.85;44.29
62849;BME280;48941;49.516;8.286;2022-07-01T12:34:51;100707.47;;;23.69;44.49
62849;BME280;48941;49.516;8.286;2022-07-01T12:37:28;100717.81;;;23.52;45.30
62849;BME280;48941;49.516;8.286;2022-07-01T12:39:58;100719.84;;;23.43;45.95
62849;BME280;48941;49.516;8.286;2022-07-01T12:42:29;100718.09;;;23.29;45.97
62849;BME280;48941;49.516;8.286;2022-07-01T12:44:58;100722.28;;;23.03;46.84
62849;BME280;48941;49.516;8.286;2022-07-01T12:47:29;100718.41;;;22.91;47.30
62849;BME280;48941;49.516;8.286;2022-07-01T12:50:15;100718.28;;;22.77;47.25
62849;BME280;48941;49.516;8.286;2022-07-01T12:52:57;100715.19;;;22.59;47.61
62849;BME280;48941;49.516;8.286;2022-07-01T12:55:27;100720.03;;;22.63;48.04
62849;BME280;48941;49.516;8.286;2022-07-01T12:57:57;100710.13;;;22.56;47.75
62849;BME280;48941;49.516;8.286;2022-07-01T13:00:28;100719.66;;;22.45;48.18
62849;BME280;48941;49.516;8.286;2022-07-01T13:02:58;100711.16;;;22.33;48.26
62849;BME280;48941;49.516;8.286;2022-07-01T13:05:27;100702.94;;;22.26;47.94